Terminal Aerodrome Forecast
Issued by NWS

Home | Current Version | Previous Version | Text Only | Print | Product List | Glossary On
Versions: 1 2 3 4 5 6 7 8 9 10 11 12 13
000
FTUS45 KPSR 252323
TAFSDL
TAF
KSDL 252323Z 2600/2624 24012G22KT P6SM FEW120
     FM260400 26007KT P6SM FEW140
     FM260600 VRB05KT P6SM SKC
     FM261500 15008KT P6SM SKC
     FM261900 25009KT P6SM SKC=

USA.gov is the U.S. government's official web portal to all federal, state and local government web resources and services.